createdAt,value
2023-01-25T00:00:02.297Z,-4.73
2023-01-25T00:02:32.121Z,-4.71
2023-01-25T00:04:59.745Z,-4.66
2023-01-25T00:07:27.012Z,-4.65
2023-01-25T00:09:54.442Z,-4.66
2023-01-25T00:12:22.087Z,-4.67
2023-01-25T00:14:49.126Z,-4.68
2023-01-25T00:17:16.424Z,-4.70
2023-01-25T00:19:43.695Z,-4.76
2023-01-25T00:22:11.146Z,-4.84
2023-01-25T00:24:38.690Z,-4.95
2023-01-25T00:27:05.618Z,-4.98
2023-01-25T00:29:32.636Z,-4.98
2023-01-25T00:32:29.406Z,-5.02
2023-01-25T00:34:58.346Z,-5.12
2023-01-25T00:37:28.765Z,-5.22
2023-01-25T00:40:01.118Z,-5.30
2023-01-25T00:42:28.054Z,-5.38
2023-01-25T00:44:54.991Z,-5.44
2023-01-25T00:47:23.778Z,-5.44
2023-01-25T00:49:50.857Z,-5.46
2023-01-25T00:52:18.544Z,-5.55
2023-01-25T00:54:46.247Z,-5.62
2023-01-25T00:57:13.916Z,-5.69
2023-01-25T00:59:44.657Z,-5.71
2023-01-25T01:02:12.725Z,-5.75
2023-01-25T01:04:39.644Z,-5.74
2023-01-25T01:07:12.306Z,-5.68
2023-01-25T01:09:39.731Z,-5.52
2023-01-25T01:12:06.706Z,-5.42
2023-01-25T01:14:33.957Z,-5.38
2023-01-25T01:17:01.782Z,-5.37
2023-01-25T01:19:29.395Z,-5.38
2023-01-25T01:21:56.575Z,-5.39
2023-01-25T01:24:23.943Z,-5.43
2023-01-25T01:26:50.940Z,-5.46
2023-01-25T01:29:18.346Z,-5.42
2023-01-25T01:31:45.807Z,-5.40
2023-01-25T01:34:18.342Z,-5.43
2023-01-25T01:36:45.799Z,-5.46
2023-01-25T01:39:13.275Z,-5.49
2023-01-25T01:41:40.318Z,-5.50
2023-01-25T01:44:15.693Z,-5.49
2023-01-25T01:46:42.907Z,-5.43
2023-01-25T01:49:18.968Z,-5.47
2023-01-25T01:51:53.490Z,-5.64
2023-01-25T01:54:29.204Z,-5.80
2023-01-25T01:57:06.970Z,-5.88
2023-01-25T01:59:46.656Z,-5.84
2023-01-25T02:02:14.758Z,-5.80
2023-01-25T02:04:43.141Z,-5.80
2023-01-25T02:07:32.730Z,-5.76
2023-01-25T02:10:01.347Z,-5.77
2023-01-25T02:12:29.530Z,-5.75
2023-01-25T02:14:56.585Z,-5.68
2023-01-25T02:17:27.879Z,-5.55
2023-01-25T02:20:07.853Z,-5.46
2023-01-25T02:22:45.131Z,-5.37
2023-01-25T02:25:14.388Z,-5.32
2023-01-25T02:27:43.445Z,-5.31
2023-01-25T02:30:11.404Z,-5.27
2023-01-25T02:32:39.720Z,-5.24
2023-01-25T02:35:07.855Z,-5.15
2023-01-25T02:37:35.746Z,-5.05
2023-01-25T02:40:05.861Z,-5.05
2023-01-25T02:42:35.659Z,-5.07
2023-01-25T02:45:04.964Z,-5.12
2023-01-25T02:47:32.398Z,-5.15
2023-01-25T02:50:00.703Z,-5.15
2023-01-25T02:52:28.251Z,-5.13
2023-01-25T02:54:55.898Z,-5.02
2023-01-25T02:57:23.257Z,-4.91
2023-01-25T02:59:50.980Z,-4.86
2023-01-25T03:02:19.013Z,-4.86
2023-01-25T03:04:46.718Z,-4.84
2023-01-25T03:07:13.897Z,-4.92
2023-01-25T03:09:41.592Z,-5.01
2023-01-25T03:12:08.799Z,-5.06
2023-01-25T03:14:38.529Z,-5.07
2023-01-25T03:17:59.518Z,-5.10
2023-01-25T03:20:27.707Z,-5.11
2023-01-25T03:22:55.520Z,-5.09
2023-01-25T03:25:22.573Z,-5.07
2023-01-25T03:28:04.380Z,-5.04
2023-01-25T03:30:31.441Z,-4.95
2023-01-25T03:32:58.839Z,-4.87
2023-01-25T03:35:26.159Z,-4.86
2023-01-25T03:37:54.410Z,-4.88
2023-01-25T03:40:21.925Z,-4.92
2023-01-25T03:42:50.949Z,-4.94
2023-01-25T03:45:18.251Z,-4.95
2023-01-25T03:47:45.386Z,-4.95
2023-01-25T03:50:12.389Z,-4.92
2023-01-25T03:52:42.206Z,-4.89
2023-01-25T03:55:09.993Z,-4.90
2023-01-25T03:57:42.347Z,-4.94
2023-01-25T04:00:12.908Z,-4.98
2023-01-25T04:02:45.177Z,-5.01
2023-01-25T04:05:16.130Z,-4.96
2023-01-25T04:07:43.120Z,-4.87
2023-01-25T04:10:11.045Z,-4.82
2023-01-25T04:12:40.468Z,-4.84
2023-01-25T04:15:08.536Z,-4.88
2023-01-25T04:17:36.015Z,-4.86
2023-01-25T04:20:13.625Z,-4.82
2023-01-25T04:22:40.943Z,-4.73
2023-01-25T04:25:09.433Z,-4.56
2023-01-25T04:27:39.237Z,-4.46
2023-01-25T04:30:10.044Z,-4.41
2023-01-25T04:32:38.337Z,-4.37
2023-01-25T04:35:13.870Z,-4.38
2023-01-25T04:37:41.962Z,-4.35
2023-01-25T04:40:10.216Z,-4.32
2023-01-25T04:42:42.526Z,-4.23
2023-01-25T04:45:10.437Z,-4.14
2023-01-25T04:47:38.604Z,-4.12
2023-01-25T04:50:07.213Z,-4.11
2023-01-25T04:52:34.932Z,-4.13
2023-01-25T04:55:02.008Z,-4.20
2023-01-25T04:57:29.504Z,-4.31
2023-01-25T04:59:57.577Z,-4.39
2023-01-25T05:02:24.687Z,-4.38
2023-01-25T05:04:52.806Z,-4.25
2023-01-25T05:07:20.274Z,-4.18
2023-01-25T05:09:48.796Z,-4.13
2023-01-25T05:12:16.169Z,-4.08
2023-01-25T05:14:51.914Z,-4.07
2023-01-25T05:17:21.772Z,-4.06
2023-01-25T05:19:50.316Z,-4.11
2023-01-25T05:22:23.863Z,-4.05
2023-01-25T05:24:55.020Z,-3.94
2023-01-25T05:27:23.626Z,-3.96
2023-01-25T05:29:54.263Z,-4.07
2023-01-25T05:32:25.318Z,-4.15
2023-01-25T05:34:53.091Z,-4.19
2023-01-25T05:37:21.306Z,-4.21
2023-01-25T05:39:53.627Z,-4.16
2023-01-25T05:42:21.691Z,-4.10
2023-01-25T05:44:49.158Z,-4.09
2023-01-25T05:47:18.336Z,-4.13
2023-01-25T05:49:46.987Z,-4.20
2023-01-25T05:52:27.381Z,-4.25
2023-01-25T05:54:55.149Z,-4.27
2023-01-25T05:57:25.279Z,-4.29
2023-01-25T05:59:53.361Z,-4.37
2023-01-25T06:02:22.686Z,-4.41
2023-01-25T06:04:50.143Z,-4.39
2023-01-25T06:07:18.604Z,-4.33
2023-01-25T06:09:45.704Z,-4.22
2023-01-25T06:12:13.260Z,-4.19
2023-01-25T06:14:40.541Z,-4.21
2023-01-25T06:17:08.220Z,-4.21
2023-01-25T06:20:08.120Z,-4.19
2023-01-25T06:22:44.225Z,-4.12
2023-01-25T06:25:11.547Z,-4.11
2023-01-25T06:27:38.651Z,-4.10
2023-01-25T06:30:06.036Z,-4.05
2023-01-25T06:32:33.543Z,-4.02
2023-01-25T06:35:00.984Z,-4.00
2023-01-25T06:37:28.191Z,-4.03
2023-01-25T06:39:55.197Z,-4.05
2023-01-25T06:42:24.465Z,-4.05
2023-01-25T09:31:40.536Z,-1.36
2023-01-25T09:34:36.208Z,-1.32
2023-01-25T09:37:03.527Z,-1.27
2023-01-25T09:39:30.795Z,-1.18
2023-01-25T09:42:23.219Z,-1.17
2023-01-25T09:45:30.385Z,-1.14
2023-01-25T09:48:11.106Z,-1.06
2023-01-25T09:50:40.705Z,-0.92
2023-01-25T09:53:19.534Z,-0.80
2023-01-25T09:55:51.322Z,-0.82
2023-01-25T09:58:24.751Z,-0.75
2023-01-25T10:01:16.562Z,-0.59
2023-01-25T10:03:51.072Z,-0.47
2023-01-25T10:06:20.891Z,-0.46
2023-01-25T10:08:58.810Z,-0.41
2023-01-25T10:11:32.048Z,-0.47
2023-01-25T10:13:59.666Z,-0.57
2023-01-25T10:16:52.496Z,-0.65
2023-01-25T10:19:39.324Z,-0.69
2023-01-25T10:22:16.088Z,-0.71
2023-01-25T10:24:46.417Z,-0.63
2023-01-25T10:27:19.825Z,-0.51
2023-01-25T10:29:47.067Z,-0.49
2023-01-25T10:32:27.215Z,-0.49
2023-01-25T10:34:57.461Z,-0.44
2023-01-25T10:37:28.606Z,-0.40
2023-01-25T10:39:59.033Z,-0.33
2023-01-25T10:42:26.767Z,-0.22
2023-01-25T10:44:53.840Z,-0.13
2023-01-25T10:47:20.745Z,-0.09
2023-01-25T10:49:59.700Z,-0.05
2023-01-25T10:52:31.586Z,0.05
2023-01-25T10:55:18.624Z,0.13
2023-01-25T10:57:48.860Z,0.19
2023-01-25T11:00:30.512Z,0.17
2023-01-25T11:02:57.835Z,0.21
2023-01-25T11:05:26.685Z,0.35
2023-01-25T11:07:54.289Z,0.45
2023-01-25T11:10:32.914Z,0.55
2023-01-25T11:13:15.158Z,0.58
2023-01-25T11:15:46.107Z,0.55
2023-01-25T11:18:23.894Z,0.55
2023-01-25T11:21:06.749Z,0.60
2023-01-25T11:23:34.896Z,0.65
2023-01-25T11:26:18.539Z,0.67
2023-01-25T11:28:49.111Z,0.73
2023-01-25T11:31:22.595Z,0.85
2023-01-25T11:33:49.642Z,0.97
2023-01-25T11:36:44.486Z,1.05
2023-01-25T11:39:48.962Z,1.19
2023-01-25T11:42:46.040Z,1.31
2023-01-25T11:45:35.035Z,1.38
2023-01-25T11:48:23.444Z,1.41
2023-01-25T11:51:27.403Z,1.46
2023-01-25T11:54:20.573Z,1.50
2023-01-25T11:56:59.633Z,1.57
2023-01-25T12:00:03.790Z,1.67
2023-01-25T12:02:51.266Z,1.76
2023-01-25T12:05:36.702Z,1.78
2023-01-25T12:08:12.930Z,1.75
2023-01-25T12:11:06.712Z,1.72
2023-01-25T15:17:48.723Z,-0.66
2023-01-25T15:20:39.149Z,-0.64
2023-01-25T15:23:12.133Z,-0.56
2023-01-25T15:26:00.017Z,-0.53
2023-01-25T15:28:30.374Z,-0.51
2023-01-25T15:30:59.602Z,-0.52
2023-01-25T15:33:29.060Z,-0.54
2023-01-25T15:35:56.610Z,-0.56
2023-01-25T15:38:25.192Z,-0.59
2023-01-25T15:40:53.345Z,-0.62
2023-01-25T15:43:21.319Z,-0.59
2023-01-25T15:45:50.235Z,-0.53
2023-01-25T15:48:29.787Z,-0.53
2023-01-25T15:50:57.897Z,-0.57
2023-01-25T15:53:25.020Z,-0.59
2023-01-25T15:55:55.792Z,-0.61
2023-01-25T15:58:28.537Z,-0.64
2023-01-25T16:00:55.774Z,-0.69
2023-01-25T16:03:23.081Z,-0.69
2023-01-25T16:05:52.109Z,-0.69
2023-01-25T16:08:19.539Z,-0.70
2023-01-25T16:10:47.024Z,-0.70
2023-01-25T16:13:14.603Z,-0.72
2023-01-25T16:15:42.514Z,-0.75
2023-01-25T16:18:12.863Z,-0.81
2023-01-25T16:20:40.393Z,-0.85
2023-01-25T16:23:08.714Z,-0.88
2023-01-25T16:25:36.037Z,-0.92
2023-01-25T16:28:03.323Z,-0.95
2023-01-25T16:30:34.429Z,-0.97
2023-01-25T16:33:02.116Z,-0.93
2023-01-25T16:35:29.381Z,-0.90
2023-01-25T16:37:57.145Z,-0.88
2023-01-25T16:40:36.795Z,-0.89
2023-01-25T16:43:04.430Z,-0.89
2023-01-25T16:45:32.281Z,-0.90
2023-01-25T16:48:00.365Z,-0.91
2023-01-25T16:50:27.901Z,-0.94
2023-01-25T16:52:58.695Z,-0.99
2023-01-25T16:55:25.936Z,-1.03
2023-01-25T16:57:52.964Z,-1.08
2023-01-25T17:00:20.936Z,-1.12
2023-01-25T17:02:58.577Z,-1.16
2023-01-25T17:05:33.203Z,-1.14
2023-01-25T17:08:00.719Z,-1.05
2023-01-25T17:10:30.643Z,-1.05
2023-01-25T17:12:57.953Z,-1.11
2023-01-25T17:15:26.400Z,-1.17
2023-01-25T17:17:54.000Z,-1.24
2023-01-25T17:20:22.674Z,-1.29
2023-01-25T17:22:51.436Z,-1.37
2023-01-25T17:25:18.555Z,-1.57
2023-01-25T17:27:46.521Z,-1.75
2023-01-25T17:30:15.037Z,-1.83
2023-01-25T17:32:42.238Z,-1.83
2023-01-25T17:35:09.592Z,-1.81
2023-01-25T17:37:41.065Z,-1.80
2023-01-25T17:40:10.542Z,-1.83
2023-01-25T17:42:37.775Z,-1.89
2023-01-25T17:45:05.739Z,-1.95
2023-01-25T17:47:35.611Z,-1.96
2023-01-25T17:50:04.685Z,-1.97
2023-01-25T17:52:32.834Z,-1.90
2023-01-25T17:55:00.627Z,-1.84
2023-01-25T17:57:29.339Z,-1.85
2023-01-25T17:59:59.900Z,-1.88
2023-01-25T18:02:27.237Z,-1.92
2023-01-25T18:04:54.608Z,-1.98
2023-01-25T19:21:52.149Z,-2.79
2023-01-25T19:24:21.075Z,-2.92
2023-01-25T19:26:49.015Z,-2.98
2023-01-25T19:29:16.293Z,-2.97
2023-01-25T19:31:43.648Z,-2.98
2023-01-25T19:34:11.209Z,-2.94
2023-01-25T19:36:43.934Z,-2.91
2023-01-25T19:39:11.722Z,-2.89
2023-01-25T19:41:39.596Z,-2.92
2023-01-25T19:44:07.432Z,-2.97
2023-01-25T19:46:35.543Z,-2.99
2023-01-25T19:49:05.355Z,-2.96
2023-01-25T19:51:34.955Z,-2.92
2023-01-25T19:54:05.564Z,-2.89
2023-01-25T19:56:35.814Z,-2.86
2023-01-25T19:59:08.632Z,-2.86
2023-01-25T20:01:43.832Z,-2.86
2023-01-25T20:54:06.073Z,-3.90
2023-01-25T21:35:34.798Z,-3.93
2023-01-25T21:38:04.819Z,-3.93
2023-01-25T21:40:35.598Z,-3.95
2023-01-25T21:43:04.882Z,-3.97
2023-01-25T21:45:58.115Z,-4.00
2023-01-25T21:48:51.559Z,-4.02
2023-01-25T21:51:36.404Z,-4.04
2023-01-25T21:54:06.210Z,-4.06
2023-01-25T21:56:36.117Z,-4.06
2023-01-25T21:59:06.961Z,-4.07
2023-01-25T22:01:37.556Z,-4.08
2023-01-25T22:04:09.805Z,-4.10
2023-01-25T22:06:40.108Z,-4.13
2023-01-25T22:09:09.055Z,-4.20
2023-01-25T22:11:45.582Z,-4.25
2023-01-25T22:14:17.956Z,-4.30
2023-01-25T22:16:48.398Z,-4.31
2023-01-25T22:19:19.298Z,-4.31
2023-01-25T22:21:49.515Z,-4.33
2023-01-25T22:24:22.179Z,-4.34
2023-01-25T22:27:26.279Z,-4.37
2023-01-25T22:29:54.335Z,-4.41
2023-01-25T22:32:22.367Z,-4.43
2023-01-25T22:34:50.338Z,-4.44
2023-01-25T22:37:17.824Z,-4.48
2023-01-25T22:39:46.405Z,-4.50
2023-01-25T22:42:14.788Z,-4.53
2023-01-25T22:44:42.832Z,-4.56
2023-01-25T22:47:10.516Z,-4.59
2023-01-25T22:49:38.940Z,-4.61
2023-01-25T22:52:06.630Z,-4.63
2023-01-25T22:54:36.618Z,-4.65
2023-01-25T22:57:04.248Z,-4.66
2023-01-25T22:59:32.193Z,-4.67
2023-01-25T23:02:00.521Z,-4.69
2023-01-25T23:04:28.723Z,-4.71
2023-01-25T23:07:02.466Z,-4.73
2023-01-25T23:09:30.194Z,-4.75
2023-01-25T23:11:58.879Z,-4.77
2023-01-25T23:14:45.524Z,-4.79
2023-01-25T23:17:31.999Z,-4.82
2023-01-25T23:19:58.978Z,-4.85
2023-01-25T23:22:27.324Z,-4.88
2023-01-25T23:24:54.865Z,-4.90
2023-01-25T23:27:22.476Z,-4.92
2023-01-25T23:29:51.214Z,-4.95
2023-01-25T23:32:18.844Z,-4.97
2023-01-25T23:34:46.028Z,-4.99
2023-01-25T23:37:14.870Z,-4.97
2023-01-25T23:39:44.394Z,-4.91
2023-01-25T23:42:13.413Z,-4.91
2023-01-25T23:44:41.401Z,-4.95
2023-01-25T23:47:09.364Z,-4.99
2023-01-25T23:49:36.830Z,-5.03
2023-01-25T23:52:03.955Z,-5.08
2023-01-25T23:54:31.474Z,-5.13
2023-01-25T23:56:59.256Z,-5.16
2023-01-25T23:59:27.779Z,-5.18
